Time;durP1;ratioP1;P1;durP2;ratioP2;P2;SDS_P1;SDS_P2;PMS_P1;PMS_P2;Temp;Humidity;BMP_temperature;BMP_pressure;BME280_temperature;BME280_humidity;BME280_pressure;Samples;Min_cycle;Max_cycle;Signal;HPM_P1;HPM_P2
2021/06/06 00:00:15;;;;;;;9.90;7.30;;;;;;;17.87;77.00;97140.44;5049624;28;20445;-68
2021/06/06 00:02:42;;;;;;;8.23;6.70;;;;;;;18.11;76.11;97131.09;5051003;28;20275;-68
2021/06/06 00:05:09;;;;;;;7.67;6.70;;;;;;;18.14;75.57;97134.38;5054529;28;20607;-66
2021/06/06 00:07:34;;;;;;;9.20;7.13;;;;;;;17.84;76.47;97132.03;5051281;28;20841;-67
2021/06/06 00:10:00;;;;;;;11.17;7.30;;;;;;;17.91;76.75;97130.25;5049710;28;20446;-68
2021/06/06 00:12:25;;;;;;;9.60;6.93;;;;;;;17.88;76.88;97123.50;5058503;28;20266;-68
2021/06/06 00:14:51;;;;;;;8.63;6.53;;;;;;;17.64;77.19;97125.66;5057205;28;20214;-69
2021/06/06 00:17:17;;;;;;;10.10;6.77;;;;;;;17.88;76.33;97126.16;5055085;28;20921;-67
2021/06/06 00:19:42;;;;;;;8.47;6.57;;;;;;;17.98;75.73;97125.78;5058129;28;20213;-68
2021/06/06 00:22:08;;;;;;;8.20;6.13;;;;;;;17.78;76.62;97125.72;5054678;28;20202;-68
2021/06/06 00:24:35;;;;;;;7.60;6.57;;;;;;;17.98;75.87;97131.09;5057918;28;20205;-67
2021/06/06 00:27:02;;;;;;;9.43;6.10;;;;;;;18.12;75.39;97121.34;5056316;28;20529;-68
2021/06/06 00:29:28;;;;;;;10.20;7.43;;;;;;;17.97;76.13;97129.44;5056249;28;20762;-68
2021/06/06 00:31:54;;;;;;;11.23;7.17;;;;;;;17.98;75.52;97125.78;5056735;28;20448;-67
2021/06/06 00:34:21;;;;;;;10.40;7.70;;;;;;;17.65;77.10;97118.56;5056107;28;20476;-68
2021/06/06 00:36:46;;;;;;;9.23;7.57;;;;;;;17.68;77.38;97119.97;5056878;28;20429;-68
2021/06/06 00:39:12;;;;;;;9.43;7.43;;;;;;;17.92;76.55;97118.63;5054752;28;20858;-68
2021/06/06 00:41:40;;;;;;;9.17;6.97;;;;;;;17.96;75.93;97118.00;5057009;28;20217;-68
2021/06/06 00:44:07;;;;;;;10.13;7.70;;;;;;;17.91;75.71;97115.13;5055551;28;20215;-66
2021/06/06 00:46:33;;;;;;;10.57;8.17;;;;;;;18.05;75.46;97118.66;5056853;28;20425;-67
2021/06/06 00:49:00;;;;;;;10.90;7.40;;;;;;;17.99;75.54;97110.72;5057111;28;20429;-67
2021/06/06 00:51:35;;;;;;;11.57;6.97;;;;;;;17.75;75.74;97126.13;5056655;28;20199;-68
2021/06/06 00:54:04;;;;;;;10.30;8.03;;;;;;;18.00;75.10;97125.59;5047287;28;20444;-68
2021/06/06 00:56:30;;;;;;;10.43;7.73;;;;;;;17.99;75.17;97121.31;5055110;28;20417;-69
2021/06/06 00:58:56;;;;;;;7.33;6.60;;;;;;;18.09;74.82;97124.38;5048507;28;20516;-68
2021/06/06 01:01:24;;;;;;;11.87;7.13;;;;;;;17.81;75.54;97122.66;5059093;28;20202;-68
2021/06/06 01:03:51;;;;;;;11.43;7.80;;;;;;;17.84;75.46;97119.63;5058075;28;20422;-68
2021/06/06 01:06:30;;;;;;;11.47;7.97;;;;;;;17.80;75.43;97128.97;5058701;28;20421;-67
2021/06/06 01:08:57;;;;;;;9.20;7.17;;;;;;;18.11;73.75;97122.34;5058416;28;20449;-69
2021/06/06 01:11:29;;;;;;;10.27;7.93;;;;;;;17.48;76.68;97121.56;5042949;28;20436;-68
2021/06/06 01:13:59;;;;;;;11.77;7.50;;;;;;;17.89;74.77;97116.38;5055539;28;20848;-66
2021/06/06 01:16:41;;;;;;;9.10;7.00;;;;;;;17.99;74.03;97123.97;5059693;28;20417;-67
2021/06/06 01:19:32;;;;;;;9.37;7.33;;;;;;;17.95;74.20;97116.38;5063264;28;20447;-67
2021/06/06 01:22:19;;;;;;;10.67;7.93;;;;;;;17.68;75.31;97112.03;5053043;28;20434;-67
2021/06/06 01:24:52;;;;;;;9.20;7.40;;;;;;;17.62;75.66;97113.66;5058561;28;20500;-67
2021/06/06 01:27:20;;;;;;;10.23;7.13;;;;;;;17.76;76.10;97106.56;5058695;28;20507;-66
2021/06/06 01:29:49;;;;;;;11.00;8.00;;;;;;;17.89;75.20;97106.59;5042242;28;20446;-67
2021/06/06 01:32:17;;;;;;;11.47;8.10;;;;;;;17.96;74.92;97111.88;5058725;28;20461;-68
2021/06/06 01:34:49;;;;;;;11.70;8.40;;;;;;;18.10;74.63;97107.44;5058413;28;20804;-68
2021/06/06 01:37:19;;;;;;;11.20;8.83;;;;;;;17.89;74.94;97106.59;5054090;28;20776;-68
2021/06/06 01:39:48;;;;;;;14.13;8.50;;;;;;;17.59;77.37;97106.91;5052961;28;20456;-69
2021/06/06 01:42:28;;;;;;;9.93;8.43;;;;;;;17.64;77.00;97099.16;5055182;28;20428;-70
2021/06/06 01:44:57;;;;;;;10.93;8.57;;;;;;;17.59;76.92;97103.44;5056634;28;20560;-68
2021/06/06 01:47:26;;;;;;;13.20;9.17;;;;;;;17.60;77.71;97097.97;5056739;28;20421;-67
2021/06/06 01:49:54;;;;;;;13.47;9.67;;;;;;;17.83;76.63;97104.72;5049252;28;20452;-68
2021/06/06 01:52:24;;;;;;;13.13;8.80;;;;;;;17.78;76.80;97099.19;5056585;28;20504;-68
2021/06/06 01:54:50;;;;;;;15.33;9.00;;;;;;;17.84;76.36;97098.41;5056874;28;20429;-68
2021/06/06 01:57:20;;;;;;;12.37;9.30;;;;;;;17.90;75.87;97102.09;5040946;28;20811;-70
2021/06/06 01:59:49;;;;;;;11.13;9.03;;;;;;;17.81;76.27;97094.34;5055117;28;20479;-69
2021/06/06 02:02:14;;;;;;;11.40;7.67;;;;;;;17.70;76.62;97102.88;5046948;28;20525;-69
2021/06/06 02:04:41;;;;;;;14.03;9.00;;;;;;;17.81;76.30;97098.81;5053123;28;20550;-68
2021/06/06 02:07:17;;;;;;;9.80;7.73;;;;;;;18.00;75.61;97096.44;5052493;28;20213;-68
2021/06/06 02:09:53;;;;;;;10.40;7.90;;;;;;;17.55;77.79;97103.03;5047377;28;20456;-70
2021/06/06 02:12:23;;;;;;;8.93;8.00;;;;;;;17.79;77.07;97100.84;5053500;28;20924;-70
2021/06/06 02:14:49;;;;;;;10.17;8.30;;;;;;;17.70;78.13;97102.06;5048584;28;21140;-68
2021/06/06 02:17:24;;;;;;;10.40;7.80;;;;;;;17.24;79.11;97101.72;5055638;28;21005;-68
2021/06/06 02:19:50;;;;;;;12.77;7.77;;;;;;;17.37;78.50;97100.13;5057914;28;20194;-67
2021/06/06 02:22:16;;;;;;;11.40;8.43;;;;;;;17.54;77.91;97095.28;5051879;28;20562;-68
2021/06/06 02:24:42;;;;;;;13.60;8.30;;;;;;;17.67;77.30;97100.63;5040230;28;20290;-69
2021/06/06 02:27:08;;;;;;;13.00;8.00;;;;;;;17.76;76.99;97102.06;5055593;28;20829;-69
2021/06/06 02:30:12;;;;;;;9.67;8.20;;;;;;;17.85;76.25;97089.44;5059355;28;20432;-68
2021/06/06 02:33:00;;;;;;;10.77;7.47;;;;;;;17.64;77.02;97091.22;5057412;28;20287;-66
2021/06/06 02:35:46;;;;;;;12.33;7.70;;;;;;;17.65;77.21;97090.22;5039829;28;20413;-69
2021/06/06 02:38:17;;;;;;;10.67;8.23;;;;;;;17.64;76.52;97093.06;5056765;28;20480;-69
2021/06/06 02:40:49;;;;;;;12.83;8.37;;;;;;;17.66;76.58;97091.84;5040142;28;20449;-67
2021/06/06 02:43:19;;;;;;;11.90;7.63;;;;;;;17.68;76.81;97088.19;5046268;28;20435;-70
2021/06/06 02:45:45;;;;;;;11.10;9.10;;;;;;;17.50;77.42;97092.22;5051067;28;20552;-68
2021/06/06 02:48:21;;;;;;;11.67;8.27;;;;;;;17.42;78.19;97089.75;5050859;28;20509;-69
2021/06/06 02:50:47;;;;;;;9.77;8.13;;;;;;;17.50;77.90;97087.72;5050364;28;20444;-69
2021/06/06 02:53:21;;;;;;;10.50;8.23;;;;;;;17.57;77.73;97093.06;5051303;28;20465;-68
2021/06/06 02:55:49;;;;;;;10.30;7.67;;;;;;;17.55;78.14;97089.78;5018430;28;20426;-69
2021/06/06 02:58:40;;;;;;;10.40;8.20;;;;;;;17.48;77.71;97097.72;4985947;28;20878;-69
2021/06/06 03:01:18;;;;;;;9.60;7.77;;;;;;;17.64;77.23;97088.56;5021028;28;20457;-69
2021/06/06 03:03:45;;;;;;;10.57;8.33;;;;;;;17.56;77.72;97094.06;5033160;28;20441;-67
2021/06/06 03:06:16;;;;;;;12.00;7.77;;;;;;;17.41;78.64;97094.22;5050578;28;20421;-68
2021/06/06 03:08:41;;;;;;;11.30;7.70;;;;;;;17.60;77.12;97092.66;5040529;28;20841;-68
2021/06/06 03:11:09;;;;;;;10.77;7.23;;;;;;;17.56;77.37;97087.97;5052581;28;20532;-68
2021/06/06 03:13:48;;;;;;;10.90;7.30;;;;;;;17.24;78.88;97087.63;5053666;28;20175;-67
2021/06/06 03:16:16;;;;;;;9.33;7.50;;;;;;;17.24;79.06;97083.19;5054084;28;20998;-69
2021/06/06 03:18:43;;;;;;;14.90;7.20;;;;;;;17.32;78.03;97096.22;5053101;28;20420;-68
2021/06/06 03:21:22;;;;;;;10.77;7.07;;;;;;;17.47;78.51;97085.47;5046538;28;20442;-68
2021/06/06 03:24:00;;;;;;;9.50;6.90;;;;;;;17.38;78.23;97085.88;5054057;28;20428;-67
2021/06/06 03:26:26;;;;;;;10.67;7.00;;;;;;;17.59;77.60;97080.44;5037361;28;20414;-70
2021/06/06 03:28:52;;;;;;;8.90;6.90;;;;;;;17.43;78.19;97075.47;5046500;28;20791;-69
2021/06/06 03:31:23;;;;;;;10.60;7.03;;;;;;;17.30;78.11;97071.78;5051802;28;20222;-69
2021/06/06 03:33:55;;;;;;;13.00;7.07;;;;;;;17.59;77.62;97077.78;5035309;28;20933;-71
2021/06/06 03:36:33;;;;;;;11.50;7.50;;;;;;;17.23;79.16;97076.25;5053329;28;20560;-68
2021/06/06 03:39:00;;;;;;;9.73;6.53;;;;;;;17.22;79.11;97071.13;5034327;28;20547;-69
2021/06/06 03:41:27;;;;;;;11.40;7.30;;;;;;;17.03;80.11;97073.50;5051115;28;20924;-66
2021/06/06 03:43:53;;;;;;;10.00;6.73;;;;;;;17.24;78.94;97077.88;5053095;28;20417;-68
2021/06/06 03:46:20;;;;;;;10.20;6.80;;;;;;;17.19;79.52;97070.53;5052668;28;20799;-67
2021/06/06 03:48:46;;;;;;;8.80;6.27;;;;;;;17.29;78.93;97074.63;5051562;28;20430;-69
2021/06/06 03:51:14;;;;;;;11.60;6.47;;;;;;;17.34;78.40;97080.97;5056086;28;20448;-67
2021/06/06 03:53:40;;;;;;;9.03;6.50;;;;;;;16.95;79.90;97074.50;5056768;28;20192;-67
2021/06/06 03:56:07;;;;;;;11.20;6.50;;;;;;;17.08;80.03;97072.91;5057686;28;20500;-67
2021/06/06 03:58:32;;;;;;;10.03;6.03;;;;;;;16.98;79.71;97075.91;5056077;28;20422;-68
2021/06/06 04:00:58;;;;;;;10.00;5.83;;;;;;;17.04;80.05;97077.78;5048302;28;20959;-69
2021/06/06 04:03:24;;;;;;;9.27;6.07;;;;;;;17.23;78.78;97076.25;5057014;28;20202;-68
2021/06/06 04:05:50;;;;;;;10.53;6.23;;;;;;;16.86;79.72;97080.94;5057124;28;20202;-67
2021/06/06 04:08:16;;;;;;;9.80;6.23;;;;;;;17.14;79.56;97070.28;5043162;28;20185;-67
2021/06/06 04:10:42;;;;;;;9.37;5.90;;;;;;;17.02;79.65;97074.53;5058268;28;20437;-68
2021/06/06 04:13:09;;;;;;;12.47;5.80;;;;;;;17.08;79.74;97068.41;5057573;28;20429;-68
2021/06/06 04:15:34;;;;;;;9.60;6.30;;;;;;;17.35;78.28;97066.72;5057731;28;20422;-69
2021/06/06 04:18:09;;;;;;;13.80;6.13;;;;;;;17.07;79.79;97065.97;5057862;28;20434;-68
2021/06/06 04:20:35;;;;;;;11.73;5.93;;;;;;;17.17;79.11;97066.44;5058130;28;20205;-66
2021/06/06 04:23:00;;;;;;;8.07;5.67;;;;;;;17.30;78.46;97073.63;5054151;28;20924;-67
2021/06/06 04:25:27;;;;;;;8.93;6.00;;;;;;;16.93;79.99;97073.81;5057734;28;20214;-68
2021/06/06 04:27:52;;;;;;;11.10;6.20;;;;;;;16.86;79.51;97065.03;5058244;28;20190;-67
2021/06/06 04:30:18;;;;;;;12.70;6.10;;;;;;;17.20;78.74;97072.13;5056864;28;20551;-67
2021/06/06 04:32:43;;;;;;;9.43;5.97;;;;;;;17.16;79.10;97064.78;5058193;28;20261;-66
2021/06/06 04:35:10;;;;;;;9.57;5.67;;;;;;;17.23;78.65;97070.94;5057448;28;20175;-68
2021/06/06 04:37:35;;;;;;;7.90;5.30;;;;;;;16.98;79.27;97071.44;5050801;28;20185;-68
2021/06/06 04:40:03;;;;;;;11.73;6.20;;;;;;;16.70;80.23;97071.44;5051021;28;20455;-67
2021/06/06 04:42:28;;;;;;;15.57;7.43;;;;;;;17.00;79.75;97069.44;5058027;28;20190;-68
2021/06/06 04:44:54;;;;;;;11.13;6.20;;;;;;;16.99;79.74;97072.25;5057518;28;20453;-67
2021/06/06 04:47:20;;;;;;;20.40;7.27;;;;;;;16.72;80.37;97075.56;5057343;28;20237;-68
2021/06/06 04:49:45;;;;;;;17.10;7.40;;;;;;;16.82;80.86;97066.44;5056996;28;20590;-68
2021/06/06 04:52:13;;;;;;;19.77;6.60;;;;;;;17.05;79.44;97068.84;5055763;28;20232;-67
2021/06/06 04:54:39;;;;;;;12.73;6.37;;;;;;;16.71;80.44;97067.78;5057714;28;20751;-67
2021/06/06 04:57:07;;;;;;;18.90;6.97;;;;;;;16.88;80.28;97061.19;5057298;28;20429;-68
2021/06/06 04:59:35;;;;;;;14.93;6.60;;;;;;;17.03;80.05;97066.38;5057441;28;20591;-67
2021/06/06 05:02:06;;;;;;;11.43;5.47;;;;;;;16.89;80.89;97064.63;5040304;28;20422;-66
2021/06/06 05:04:33;;;;;;;13.27;6.70;;;;;;;17.13;79.57;97065.22;5057263;28;20465;-68
2021/06/06 05:06:58;;;;;;;13.30;6.87;;;;;;;16.65;80.98;97064.09;5057537;28;20428;-68
2021/06/06 05:09:24;;;;;;;15.27;7.10;;;;;;;16.54;81.32;97075.22;5044410;28;20426;-69
2021/06/06 05:11:50;;;;;;;18.97;6.70;;;;;;;16.85;80.43;97066.06;5058369;28;20203;-68
2021/06/06 05:14:16;;;;;;;15.10;6.60;;;;;;;16.86;80.32;97057.91;5055242;28;20642;-68
2021/06/06 05:16:42;;;;;;;14.53;7.70;;;;;;;16.94;80.07;97062.25;5057426;28;20179;-68
2021/06/06 05:19:08;;;;;;;14.53;7.30;;;;;;;16.89;80.66;97060.19;5062518;28;20187;-67
2021/06/06 05:21:34;;;;;;;22.20;8.10;;;;;;;16.78;81.21;97062.53;5058515;28;20529;-66
2021/06/06 05:23:59;;;;;;;17.73;7.97;;;;;;;16.70;81.07;97056.41;5057947;28;20457;-66
2021/06/06 05:26:25;;;;;;;24.97;8.00;;;;;;;16.77;81.27;97064.38;5056916;28;20183;-68
2021/06/06 05:28:51;;;;;;;16.83;7.67;;;;;;;16.63;81.21;97071.44;5058888;28;20191;-68
2021/06/06 05:31:18;;;;;;;18.57;8.50;;;;;;;16.67;81.31;97070.03;5067962;28;20286;-68
2021/06/06 05:33:43;;;;;;;15.07;8.67;;;;;;;16.53;82.64;97081.53;5066537;28;20179;-68
2021/06/06 05:36:10;;;;;;;20.90;9.20;;;;;;;16.90;80.73;97076.84;5060610;28;20931;-67
2021/06/06 05:38:36;;;;;;;22.60;9.90;;;;;;;16.74;81.20;97083.28;5044028;28;20425;-68
2021/06/06 05:41:03;;;;;;;17.83;9.33;;;;;;;16.53;82.20;97084.16;5055906;28;20527;-68
2021/06/06 05:43:29;;;;;;;19.17;10.13;;;;;;;16.63;81.83;97082.03;5048035;28;20415;-69
2021/06/06 05:45:55;;;;;;;19.57;11.00;;;;;;;16.77;81.59;97076.78;5047158;28;20480;-69
2021/06/06 05:48:21;;;;;;;21.87;11.90;;;;;;;16.82;81.28;97080.47;5045553;28;20910;-68
2021/06/06 05:50:49;;;;;;;20.33;10.40;;;;;;;16.70;81.93;97082.03;5055580;28;20492;-68
2021/06/06 05:53:15;;;;;;;25.10;12.43;;;;;;;16.59;81.47;97080.78;5047037;28;20423;-68
2021/06/06 05:55:42;;;;;;;18.70;11.20;;;;;;;16.49;82.99;97082.94;5054400;28;20420;-67
2021/06/06 05:58:07;;;;;;;22.60;11.60;;;;;;;16.73;81.67;97077.19;5048070;28;20206;-67
2021/06/06 06:00:39;;;;;;;20.50;11.30;;;;;;;16.98;80.53;97076.75;5055228;28;20849;-69
2021/06/06 06:03:05;;;;;;;22.60;12.20;;;;;;;16.98;80.89;97079.41;5054662;28;20183;-68
2021/06/06 06:05:33;;;;;;;22.13;12.00;;;;;;;16.91;81.01;97073.19;5048163;28;20552;-68
2021/06/06 06:07:58;;;;;;;25.37;13.07;;;;;;;16.87;81.09;97077.28;5050046;28;20438;-67
2021/06/06 06:10:29;;;;;;;21.03;12.50;;;;;;;16.77;81.59;97077.63;5055436;28;20532;-68
2021/06/06 06:12:56;;;;;;;20.37;12.40;;;;;;;16.90;81.39;97076.84;5047326;28;20175;-69
2021/06/06 06:15:22;;;;;;;23.13;12.57;;;;;;;16.83;81.24;97087.41;5055030;28;20460;-68
2021/06/06 06:17:47;;;;;;;25.33;13.90;;;;;;;16.50;82.84;97077.44;5048208;28;20421;-68
2021/06/06 06:20:19;;;;;;;22.03;13.17;;;;;;;16.76;82.66;97080.47;5056111;28;20968;-68
2021/06/06 06:22:45;;;;;;;19.90;12.80;;;;;;;16.93;81.55;97076.47;5042850;28;20230;-68
2021/06/06 06:25:12;;;;;;;19.90;12.27;;;;;;;16.70;81.82;97082.88;5055409;28;20970;-69
2021/06/06 06:27:38;;;;;;;21.23;12.20;;;;;;;16.56;82.68;97081.16;5058905;28;20196;-68
2021/06/06 06:30:11;;;;;;;22.00;11.50;;;;;;;16.89;82.06;97085.81;5058484;28;20449;-67
2021/06/06 06:32:36;;;;;;;21.10;12.10;;;;;;;16.79;82.68;97086.19;5058359;28;20179;-68
2021/06/06 06:35:02;;;;;;;18.10;10.50;;;;;;;16.88;82.01;97084.19;5058226;28;20405;-68
2021/06/06 06:37:28;;;;;;;19.07;10.97;;;;;;;16.83;82.02;97094.53;5060565;28;20828;-68
2021/06/06 06:39:54;;;;;;;20.83;11.50;;;;;;;16.83;82.45;97094.53;5058426;28;20441;-68
2021/06/06 06:42:19;;;;;;;15.27;10.67;;;;;;;16.87;82.09;97096.59;5057955;28;20190;-69
2021/06/06 06:44:45;;;;;;;15.27;10.13;;;;;;;17.22;80.51;97093.13;5058137;28;20195;-68
2021/06/06 06:47:11;;;;;;;15.33;10.47;;;;;;;16.87;82.53;97093.16;5046323;28;20176;-67
2021/06/06 06:49:37;;;;;;;14.47;9.80;;;;;;;17.06;81.25;97096.13;5035457;28;20168;-68
2021/06/06 06:52:04;;;;;;;12.83;9.50;;;;;;;16.95;81.42;97102.78;5055639;28;20441;-68
2021/06/06 06:54:30;;;;;;;15.07;8.97;;;;;;;16.89;81.46;97104.34;5058667;28;20236;-68
2021/06/06 06:56:55;;;;;;;12.90;9.77;;;;;;;16.69;82.44;97099.75;5058049;28;20499;-68
2021/06/06 06:59:27;;;;;;;18.17;11.20;;;;;;;16.89;82.09;97105.16;5057364;28;20182;-69
2021/06/06 07:02:01;;;;;;;13.57;9.70;;;;;;;16.77;82.35;97103.25;5054934;28;20231;-68
2021/06/06 07:04:26;;;;;;;14.50;10.80;;;;;;;16.80;82.57;97105.50;5041449;28;20445;-68
2021/06/06 07:06:53;;;;;;;13.40;10.70;;;;;;;16.83;82.66;97100.63;5049805;28;20418;-69
2021/06/06 07:09:18;;;;;;;16.40;12.10;;;;;;;17.02;81.73;97096.50;5056337;28;20179;-68
2021/06/06 07:11:44;;;;;;;17.40;12.23;;;;;;;16.90;81.79;97103.31;5055975;28;20434;-68
2021/06/06 07:14:10;;;;;;;19.83;12.70;;;;;;;16.92;81.95;97108.44;5047025;28;20244;-68
2021/06/06 07:16:36;;;;;;;16.20;11.70;;;;;;;16.66;83.47;97112.56;5050762;28;20204;-68
2021/06/06 07:19:03;;;;;;;18.90;12.57;;;;;;;16.57;83.45;97103.94;5049298;28;20188;-70
2021/06/06 07:21:29;;;;;;;17.87;12.03;;;;;;;16.68;83.86;97103.41;5052187;28;20553;-69
2021/06/06 07:23:54;;;;;;;21.00;13.60;;;;;;;16.70;83.31;97104.03;5055996;28;20821;-68
2021/06/06 07:26:27;;;;;;;20.17;13.03;;;;;;;16.84;83.74;97107.56;5056248;28;20174;-69
2021/06/06 07:28:56;;;;;;;23.47;14.37;;;;;;;16.91;82.31;97114.75;5056159;28;20178;-68
2021/06/06 07:31:22;;;;;;;19.90;13.10;;;;;;;16.58;83.59;97101.09;5048215;28;20441;-69
2021/06/06 07:33:48;;;;;;;21.37;13.23;;;;;;;17.24;81.81;97107.00;5056103;28;20452;-68
2021/06/06 07:36:16;;;;;;;19.37;12.47;;;;;;;16.74;82.41;97115.03;5057068;28;20179;-68
2021/06/06 07:38:42;;;;;;;21.40;12.50;;;;;;;17.05;82.21;97116.50;5054243;28;20201;-67
2021/06/06 07:41:07;;;;;;;20.60;13.47;;;;;;;16.76;83.72;97112.22;5057425;28;20537;-67
2021/06/06 07:43:33;;;;;;;21.17;12.93;;;;;;;17.17;81.35;97114.09;5057783;28;20229;-68
2021/06/06 07:46:01;;;;;;;20.60;13.13;;;;;;;17.16;81.76;97117.75;5047781;28;20580;-68
2021/06/06 07:48:26;;;;;;;19.63;13.10;;;;;;;17.11;81.84;97114.88;5045489;28;20931;-67
2021/06/06 07:50:52;;;;;;;19.20;13.27;;;;;;;17.03;82.56;97103.44;5055195;28;20441;-69
2021/06/06 07:53:19;;;;;;;19.60;13.50;;;;;;;16.98;82.74;97110.31;5056111;28;20224;-68
2021/06/06 07:55:45;;;;;;;23.63;14.67;;;;;;;16.47;84.41;97108.75;5055391;28;20410;-68
2021/06/06 07:58:13;;;;;;;25.20;15.03;;;;;;;16.69;84.78;97112.97;5053232;28;21207;-68
2021/06/06 08:00:41;;;;;;;30.30;15.90;;;;;;;16.97;83.20;97114.81;5044779;28;20280;-67
2021/06/06 08:03:07;;;;;;;25.70;14.37;;;;;;;16.86;84.23;97117.97;5057224;28;20417;-68
2021/06/06 08:05:34;;;;;;;33.47;16.97;;;;;;;16.93;83.58;97120.66;5058103;28;20445;-67
2021/06/06 08:08:00;;;;;;;27.50;15.20;;;;;;;16.95;83.36;97111.53;5059293;28;20425;-70
2021/06/06 08:10:29;;;;;;;23.00;14.33;;;;;;;16.89;83.63;97110.47;5052138;28;20972;-67
2021/06/06 08:12:55;;;;;;;24.30;14.33;;;;;;;16.65;85.34;97110.91;5064038;28;20273;-68
2021/06/06 08:15:21;;;;;;;22.23;15.00;;;;;;;16.79;84.16;97112.66;5064174;28;20413;-69
2021/06/06 08:17:47;;;;;;;28.23;14.13;;;;;;;17.01;83.70;97116.03;5050865;28;20171;-69
2021/06/06 08:20:17;;;;;;;32.73;15.43;;;;;;;16.94;84.08;97119.66;5059750;28;20441;-68
2021/06/06 08:22:43;;;;;;;24.83;14.83;;;;;;;16.76;84.20;97107.72;5054183;28;20442;-68
2021/06/06 08:25:11;;;;;;;24.30;14.30;;;;;;;16.58;84.61;97111.69;5057918;28;20533;-67
2021/06/06 08:27:38;;;;;;;28.33;15.30;;;;;;;16.67;84.90;97115.00;5056565;28;20175;-67
2021/06/06 08:30:08;;;;;;;27.20;15.30;;;;;;;16.94;84.51;97115.19;5058159;28;20529;-67
2021/06/06 08:32:33;;;;;;;27.20;14.97;;;;;;;17.17;82.87;97114.09;5057432;28;20896;-68
2021/06/06 08:34:59;;;;;;;24.97;14.53;;;;;;;16.87;83.19;97114.31;5057497;28;20453;-68
2021/06/06 08:37:25;;;;;;;28.97;15.70;;;;;;;16.80;84.28;97116.94;5057702;28;20684;-67
2021/06/06 08:39:50;;;;;;;28.60;13.70;;;;;;;17.02;83.28;97107.09;5055915;28;20175;-68
2021/06/06 08:42:23;;;;;;;25.97;13.87;;;;;;;16.88;84.60;97105.38;5057006;28;20186;-68
2021/06/06 08:45:16;;;;;;;25.07;13.63;;;;;;;16.60;84.79;97111.50;5057674;28;20273;-68
2021/06/06 08:47:42;;;;;;;24.60;14.03;;;;;;;16.73;84.77;97102.81;5020725;28;20416;-69
2021/06/06 08:50:16;;;;;;;25.50;14.50;;;;;;;17.16;82.91;97104.50;5053199;28;20495;-67
2021/06/06 08:53:06;;;;;;;30.30;14.40;;;;;;;16.88;84.41;97110.66;5056536;28;20525;-68
2021/06/06 08:56:01;;;;;;;29.23;14.80;;;;;;;16.56;85.38;97107.59;5044869;28;21107;-67
2021/06/06 08:58:49;;;;;;;25.67;15.50;;;;;;;16.72;85.24;97109.97;5050215;28;20414;-67
2021/06/06 09:01:39;;;;;;;30.17;15.80;;;;;;;16.88;84.93;97102.72;5029434;28;20429;-68
2021/06/06 09:04:12;;;;;;;25.73;14.90;;;;;;;16.34;86.46;97115.59;5054664;28;20449;-67
2021/06/06 09:06:54;;;;;;;39.10;15.60;;;;;;;17.15;83.71;97108.16;5059315;28;20468;-67
2021/06/06 09:09:25;;;;;;;33.63;16.13;;;;;;;17.12;84.42;97113.88;5058570;28;20425;-67
2021/06/06 09:11:51;;;;;;;35.27;17.40;;;;;;;17.26;82.83;97104.16;5049574;28;20440;-68
2021/06/06 09:14:17;;;;;;;28.53;16.03;;;;;;;17.19;82.93;97110.25;5056924;28;20903;-69
2021/06/06 09:16:55;;;;;;;26.50;16.13;;;;;;;17.27;82.55;97114.53;5049009;28;20433;-68
2021/06/06 09:19:21;;;;;;;26.20;15.67;;;;;;;17.27;82.66;97119.81;5063287;28;20489;-68
2021/06/06 09:21:59;;;;;;;24.87;14.30;;;;;;;17.13;82.78;97113.66;5056445;28;20442;-67
2021/06/06 09:24:40;;;;;;;26.23;15.57;;;;;;;16.97;83.04;97117.47;5047703;28;20461;-68
2021/06/06 09:27:23;;;;;;;24.50;16.27;;;;;;;16.75;83.88;97116.69;5040805;28;20504;-68
2021/06/06 09:30:07;;;;;;;35.00;17.27;;;;;;;16.88;83.46;97122.06;5043581;28;20414;-68
2021/06/06 09:32:33;;;;;;;25.23;15.47;;;;;;;17.25;82.42;97113.94;5048446;28;20429;-68
2021/06/06 09:35:06;;;;;;;32.13;17.00;;;;;;;17.02;83.03;97124.81;5050328;28;20422;-67
2021/06/06 09:37:35;;;;;;;31.07;17.03;;;;;;;17.08;83.20;97115.28;5061964;28;20425;-68
2021/06/06 09:40:13;;;;;;;30.93;16.37;;;;;;;17.20;82.23;97116.34;5048388;28;20469;-67
2021/06/06 09:42:47;;;;;;;29.80;17.40;;;;;;;17.24;81.64;97125.53;5059634;28;20405;-68
2021/06/06 09:45:32;;;;;;;29.97;16.90;;;;;;;17.11;81.97;97120.19;5057234;28;20464;-69
2021/06/06 09:48:22;;;;;;;26.00;17.40;;;;;;;17.11;82.36;97136.06;5049642;28;20425;-69
2021/06/06 09:50:50;;;;;;;28.20;16.63;;;;;;;17.03;82.89;97129.09;5045235;28;20486;-68
2021/06/06 09:53:28;;;;;;;27.40;17.03;;;;;;;17.59;80.14;97128.13;5054214;28;20428;-69
2021/06/06 09:56:27;;;;;;;27.00;15.83;;;;;;;17.51;79.41;97133.59;5056010;28;20445;-68
2021/06/06 09:58:55;;;;;;;25.40;16.93;;;;;;;17.38;81.00;97129.06;5036837;28;20438;-67
2021/06/06 10:01:30;;;;;;;27.03;18.30;;;;;;;17.34;80.79;97126.00;5034068;28;20458;-68
2021/06/06 10:04:02;;;;;;;23.57;17.70;;;;;;;17.09;81.13;97138.88;5019919;28;20428;-68
2021/06/06 10:06:35;;;;;;;28.67;18.30;;;;;;;17.04;81.62;97136.84;5043467;28;20425;-69
2021/06/06 10:09:11;;;;;;;27.43;18.20;;;;;;;17.18;81.66;97131.59;5051482;28;20422;-68
2021/06/06 10:11:51;;;;;;;33.10;19.77;;;;;;;17.34;80.57;97133.94;5045264;28;20437;-68
2021/06/06 10:14:21;;;;;;;29.50;20.50;;;;;;;17.27;81.11;97130.44;5026359;28;20930;-68
2021/06/06 10:16:48;;;;;;;34.50;21.43;;;;;;;17.35;80.41;97134.75;4999869;28;20442;-69
2021/06/06 10:19:38;;;;;;;31.83;21.13;;;;;;;17.17;81.11;97141.41;5023090;28;20464;-68
2021/06/06 10:22:26;;;;;;;35.70;20.90;;;;;;;17.52;79.65;97140.50;5043812;28;20430;-67
2021/06/06 10:24:58;;;;;;;35.37;21.63;;;;;;;17.82;78.75;97142.84;5057026;28;20548;-68
2021/06/06 10:27:27;;;;;;;51.03;25.70;;;;;;;17.81;78.40;97149.16;5042339;28;20971;-70
2021/06/06 10:29:58;;;;;;;36.10;22.83;;;;;;;17.55;79.32;97145.41;5058184;28;20418;-67
2021/06/06 10:32:33;;;;;;;39.30;24.30;;;;;;;17.70;78.30;97147.09;5022822;28;20523;-67
2021/06/06 10:35:08;;;;;;;38.80;23.67;;;;;;;17.95;77.89;97148.19;5055453;28;20413;-68
2021/06/06 10:37:34;;;;;;;43.73;26.07;;;;;;;17.95;76.33;97153.50;5055164;28;20426;-68
2021/06/06 10:40:07;;;;;;;41.67;26.10;;;;;;;17.68;78.64;97151.78;5055203;28;20502;-66
2021/06/06 10:42:40;;;;;;;39.03;23.80;;;;;;;18.09;77.00;97148.25;5042769;28;20198;-68
2021/06/06 10:45:13;;;;;;;36.70;24.93;;;;;;;17.78;77.56;97157.50;5048258;28;20450;-66
2021/06/06 10:47:51;;;;;;;37.17;22.37;;;;;;;17.74;78.01;97151.81;5044823;28;20442;-68
2021/06/06 10:50:23;;;;;;;35.20;22.70;;;;;;;17.73;78.74;97144.06;5043046;28;20441;-67
2021/06/06 10:52:51;;;;;;;42.30;25.33;;;;;;;17.38;80.18;97131.69;5060656;28;20421;-68
2021/06/06 10:55:30;;;;;;;39.13;24.93;;;;;;;17.45;79.90;97143.13;5058813;28;20426;-67
2021/06/06 10:57:56;;;;;;;43.07;27.23;;;;;;;17.66;78.59;97141.38;5059797;28;20916;-68
2021/06/06 11:00:32;;;;;;;44.30;27.27;;;;;;;17.46;79.65;97138.66;5057541;28;20491;-68
2021/06/06 11:03:10;;;;;;;47.17;28.13;;;;;;;17.59;79.53;97137.88;5059161;28;20429;-67
2021/06/06 11:05:49;;;;;;;53.60;30.43;;;;;;;17.59;78.79;97133.41;5058534;28;20453;-66
2021/06/06 11:08:27;;;;;;;56.00;32.03;;;;;;;17.66;78.79;97136.88;5034064;28;20898;-67
2021/06/06 11:11:09;;;;;;;57.30;32.80;;;;;;;17.47;80.30;97129.72;5059496;28;20442;-66
2021/06/06 11:13:37;;;;;;;56.60;33.60;;;;;;;17.41;81.25;97135.78;5048282;28;20436;-68
2021/06/06 11:16:19;;;;;;;58.30;33.10;;;;;;;17.86;79.07;97135.31;5060004;28;20791;-68
2021/06/06 11:18:55;;;;;;;55.30;33.40;;;;;;;17.84;78.86;97130.22;5049923;28;20450;-67
2021/06/06 11:21:38;;;;;;;57.87;33.50;;;;;;;17.78;78.39;97131.00;5054839;28;20475;-66
2021/06/06 11:24:43;;;;;;;60.13;36.87;;;;;;;17.52;79.84;97131.75;5057658;28;20461;-67
2021/06/06 11:27:17;;;;;;;63.07;35.57;;;;;;;17.98;78.26;97124.97;5056779;28;20424;-68
2021/06/06 11:29:42;;;;;;;63.40;37.50;;;;;;;17.77;78.77;97124.06;5043725;28;20421;-69
2021/06/06 11:32:11;;;;;;;74.50;38.10;;;;;;;17.48;80.93;97128.69;5060152;28;20425;-66
2021/06/06 11:34:42;;;;;;;75.40;40.27;;;;;;;17.41;80.68;97117.25;5059969;28;20185;-67